McCracken, Kansas
Current Conditions -  °F | °C
As of 11:15 PM on Saturday 20 Dec 2014 (Local Time) from KHYS Reporting Station
Clear Clear  
Wind Chill: 34°   Ceiling: Unl
Heat Index: 34°   Visibility: 5mi
Dew Point: 27°   Wind: 0mph
Humidity: 75%   Direction: NA
Pressure: 29.99"   Gusts: NA
Location:  38.58°N, 99.57°W
Report Text: KHYS 210515Z AUTO 00000KT 5SM CLR 01/M03 A2999 RMK AO1
Loading
Personal Weather Stations






























Interactive Weather Map New forecast layout! Learn more

10-Day Weather Forecast

Advertisements
Track Severe Weather on mobile